sensor_id;sensor_type;location;lat;lon;timestamp;temperature;humidity
4699;DHT22;33708;49.466;11.176;2023-07-22T00:02:17;16.10;1.00
4699;DHT22;33708;49.466;11.176;2023-07-22T00:04:43;16.20;1.00
4699;DHT22;33708;49.466;11.176;2023-07-22T00:07:09;16.20;1.00
4699;DHT22;33708;49.466;11.176;2023-07-22T00:09:34;16.00;1.00
4699;DHT22;33708;49.466;11.176;2023-07-22T00:12:00;16.00;1.00
4699;DHT22;33708;49.466;11.176;2023-07-22T00:14:26;16.00;1.00
4699;DHT22;33708;49.466;11.176;2023-07-22T00:16:51;16.00;1.00
4699;DHT22;33708;49.466;11.176;2023-07-22T00:19:17;15.90;1.00
4699;DHT22;33708;49.466;11.176;2023-07-22T00:21:43;15.60;1.00
4699;DHT22;33708;49.466;11.176;2023-07-22T00:24:09;15.40;1.00
4699;DHT22;33708;49.466;11.176;2023-07-22T00:26:36;15.30;1.00
4699;DHT22;33708;49.466;11.176;2023-07-22T00:29:01;15.20;1.00
4699;DHT22;33708;49.466;11.176;2023-07-22T00:31:28;15.00;1.00
4699;DHT22;33708;49.466;11.176;2023-07-22T00:33:54;14.90;1.00
4699;DHT22;33708;49.466;11.176;2023-07-22T00:36:20;14.70;1.00
4699;DHT22;33708;49.466;11.176;2023-07-22T00:38:45;14.60;1.00
4699;DHT22;33708;49.466;11.176;2023-07-22T00:41:11;14.50;1.00
4699;DHT22;33708;49.466;11.176;2023-07-22T00:43:36;14.40;1.00
4699;DHT22;33708;49.466;11.176;2023-07-22T00:46:04;14.30;1.00
4699;DHT22;33708;49.466;11.176;2023-07-22T00:48:30;14.20;1.00
4699;DHT22;33708;49.466;11.176;2023-07-22T00:50:56;14.20;1.00
4699;DHT22;33708;49.466;11.176;2023-07-22T00:53:21;14.20;1.00
4699;DHT22;33708;49.466;11.176;2023-07-22T00:55:47;14.30;1.00
4699;DHT22;33708;49.466;11.176;2023-07-22T00:58:13;14.30;1.00
4699;DHT22;33708;49.466;11.176;2023-07-22T01:00:38;14.30;1.00
4699;DHT22;33708;49.466;11.176;2023-07-22T01:03:04;14.40;1.00
4699;DHT22;33708;49.466;11.176;2023-07-22T01:05:30;14.40;1.00
4699;DHT22;33708;49.466;11.176;2023-07-22T01:07:59;14.30;1.00
4699;DHT22;33708;49.466;11.176;2023-07-22T01:10:25;14.30;1.00
4699;DHT22;33708;49.466;11.176;2023-07-22T01:12:51;14.40;1.00
4699;DHT22;33708;49.466;11.176;2023-07-22T01:15:17;14.30;1.00
4699;DHT22;33708;49.466;11.176;2023-07-22T01:17:44;14.40;1.00
4699;DHT22;33708;49.466;11.176;2023-07-22T01:20:10;14.40;1.00
4699;DHT22;33708;49.466;11.176;2023-07-22T01:22:36;14.30;1.00
4699;DHT22;33708;49.466;11.176;2023-07-22T01:25:02;14.20;1.00
4699;DHT22;33708;49.466;11.176;2023-07-22T01:27:29;14.20;1.00
4699;DHT22;33708;49.466;11.176;2023-07-22T01:29:55;14.20;1.00
4699;DHT22;33708;49.466;11.176;2023-07-22T01:32:20;14.20;1.00
4699;DHT22;33708;49.466;11.176;2023-07-22T01:34:46;14.20;1.00
4699;DHT22;33708;49.466;11.176;2023-07-22T01:37:11;14.10;1.00
4699;DHT22;33708;49.466;11.176;2023-07-22T01:39:37;14.00;1.00
4699;DHT22;33708;49.466;11.176;2023-07-22T01:42:03;14.00;1.00
4699;DHT22;33708;49.466;11.176;2023-07-22T01:44:29;14.00;1.00
4699;DHT22;33708;49.466;11.176;2023-07-22T01:46:55;13.90;1.00
4699;DHT22;33708;49.466;11.176;2023-07-22T01:49:21;13.90;1.00
4699;DHT22;33708;49.466;11.176;2023-07-22T01:51:47;13.80;1.00
4699;DHT22;33708;49.466;11.176;2023-07-22T01:54:12;13.70;1.00
4699;DHT22;33708;49.466;11.176;2023-07-22T01:56:38;13.60;1.00
4699;DHT22;33708;49.466;11.176;2023-07-22T01:59:11;13.50;1.00
4699;DHT22;33708;49.466;11.176;2023-07-22T02:01:39;13.50;1.00
4699;DHT22;33708;49.466;11.176;2023-07-22T02:04:05;13.50;1.00
4699;DHT22;33708;49.466;11.176;2023-07-22T02:06:32;13.40;1.00
4699;DHT22;33708;49.466;11.176;2023-07-22T02:08:57;13.40;1.00
4699;DHT22;33708;49.466;11.176;2023-07-22T02:11:23;13.20;1.00
4699;DHT22;33708;49.466;11.176;2023-07-22T02:13:48;13.20;1.00
4699;DHT22;33708;49.466;11.176;2023-07-22T02:16:14;13.20;1.00
4699;DHT22;33708;49.466;11.176;2023-07-22T02:18:39;13.20;1.00
4699;DHT22;33708;49.466;11.176;2023-07-22T02:21:05;13.20;1.00
4699;DHT22;33708;49.466;11.176;2023-07-22T02:23:32;13.20;1.00
4699;DHT22;33708;49.466;11.176;2023-07-22T02:25:59;13.20;1.00
4699;DHT22;33708;49.466;11.176;2023-07-22T02:28:26;13.10;1.00
4699;DHT22;33708;49.466;11.176;2023-07-22T02:30:55;13.00;1.00
4699;DHT22;33708;49.466;11.176;2023-07-22T02:33:27;13.00;1.00
4699;DHT22;33708;49.466;11.176;2023-07-22T02:35:53;12.90;1.00
4699;DHT22;33708;49.466;11.176;2023-07-22T02:38:19;13.00;1.00
4699;DHT22;33708;49.466;11.176;2023-07-22T02:40:44;13.00;1.00
4699;DHT22;33708;49.466;11.176;2023-07-22T02:43:10;12.90;1.00
4699;DHT22;33708;49.466;11.176;2023-07-22T02:45:36;12.90;1.00
4699;DHT22;33708;49.466;11.176;2023-07-22T02:48:02;12.80;1.00
4699;DHT22;33708;49.466;11.176;2023-07-22T02:50:28;12.90;1.00
4699;DHT22;33708;49.466;11.176;2023-07-22T02:52:53;12.80;1.00
4699;DHT22;33708;49.466;11.176;2023-07-22T02:55:20;12.80;1.00
4699;DHT22;33708;49.466;11.176;2023-07-22T02:57:46;12.70;1.00
4699;DHT22;33708;49.466;11.176;2023-07-22T03:00:13;12.70;1.00
4699;DHT22;33708;49.466;11.176;2023-07-22T03:02:42;12.60;1.00
4699;DHT22;33708;49.466;11.176;2023-07-22T03:05:08;12.60;1.00
4699;DHT22;33708;49.466;11.176;2023-07-22T03:07:35;12.50;1.00
4699;DHT22;33708;49.466;11.176;2023-07-22T03:10:01;12.50;1.00
4699;DHT22;33708;49.466;11.176;2023-07-22T03:12:27;12.40;1.00
4699;DHT22;33708;49.466;11.176;2023-07-22T03:14:53;12.40;1.00
4699;DHT22;33708;49.466;11.176;2023-07-22T03:17:19;12.40;1.00
4699;DHT22;33708;49.466;11.176;2023-07-22T03:19:45;12.50;1.00
4699;DHT22;33708;49.466;11.176;2023-07-22T03:22:13;12.40;1.00
4699;DHT22;33708;49.466;11.176;2023-07-22T03:24:39;12.40;1.00
4699;DHT22;33708;49.466;11.176;2023-07-22T03:27:04;12.30;1.00
4699;DHT22;33708;49.466;11.176;2023-07-22T03:29:30;12.20;1.00
4699;DHT22;33708;49.466;11.176;2023-07-22T03:31:56;12.10;1.00
4699;DHT22;33708;49.466;11.176;2023-07-22T03:34:23;12.10;1.00
4699;DHT22;33708;49.466;11.176;2023-07-22T03:36:48;12.20;1.00
4699;DHT22;33708;49.466;11.176;2023-07-22T03:39:14;12.20;1.00
4699;DHT22;33708;49.466;11.176;2023-07-22T03:41:40;12.10;1.00
4699;DHT22;33708;49.466;11.176;2023-07-22T03:44:05;12.10;1.00
4699;DHT22;33708;49.466;11.176;2023-07-22T03:46:31;12.10;1.00
4699;DHT22;33708;49.466;11.176;2023-07-22T03:48:56;12.30;1.00
4699;DHT22;33708;49.466;11.176;2023-07-22T03:51:22;12.40;1.00
4699;DHT22;33708;49.466;11.176;2023-07-22T03:53:48;12.40;1.00
4699;DHT22;33708;49.466;11.176;2023-07-22T03:56:13;12.60;1.00
4699;DHT22;33708;49.466;11.176;2023-07-22T03:58:39;12.80;1.00
4699;DHT22;33708;49.466;11.176;2023-07-22T04:01:05;13.00;1.00
4699;DHT22;33708;49.466;11.176;2023-07-22T04:03:31;13.10;1.00
4699;DHT22;33708;49.466;11.176;2023-07-22T04:05:57;14.00;1.00
4699;DHT22;33708;49.466;11.176;2023-07-22T04:08:23;14.90;1.00
4699;DHT22;33708;49.466;11.176;2023-07-22T04:10:56;15.30;1.00
4699;DHT22;33708;49.466;11.176;2023-07-22T04:13:23;14.70;1.00
4699;DHT22;33708;49.466;11.176;2023-07-22T04:15:49;14.20;1.00
4699;DHT22;33708;49.466;11.176;2023-07-22T04:18:16;14.00;1.00
4699;DHT22;33708;49.466;11.176;2023-07-22T04:20:42;14.00;1.00
4699;DHT22;33708;49.466;11.176;2023-07-22T04:23:08;14.00;1.00
4699;DHT22;33708;49.466;11.176;2023-07-22T04:25:38;14.20;1.00
4699;DHT22;33708;49.466;11.176;2023-07-22T04:28:04;14.30;1.00
4699;DHT22;33708;49.466;11.176;2023-07-22T04:30:29;14.60;1.00
4699;DHT22;33708;49.466;11.176;2023-07-22T04:32:55;14.60;1.00
4699;DHT22;33708;49.466;11.176;2023-07-22T04:35:20;15.00;1.00
4699;DHT22;33708;49.466;11.176;2023-07-22T04:37:46;16.00;1.00
4699;DHT22;33708;49.466;11.176;2023-07-22T04:40:13;16.00;1.00
4699;DHT22;33708;49.466;11.176;2023-07-22T04:42:43;16.00;1.00
4699;DHT22;33708;49.466;11.176;2023-07-22T04:45:10;16.90;1.00
4699;DHT22;33708;49.466;11.176;2023-07-22T04:47:36;17.20;1.00
4699;DHT22;33708;49.466;11.176;2023-07-22T04:50:04;17.40;1.00
4699;DHT22;33708;49.466;11.176;2023-07-22T04:52:34;17.50;1.00
4699;DHT22;33708;49.466;11.176;2023-07-22T04:55:00;18.40;1.00
4699;DHT22;33708;49.466;11.176;2023-07-22T04:57:25;20.40;1.00
4699;DHT22;33708;49.466;11.176;2023-07-22T04:59:51;21.00;1.00
4699;DHT22;33708;49.466;11.176;2023-07-22T05:02:16;20.30;1.00
4699;DHT22;33708;49.466;11.176;2023-07-22T05:04:42;20.40;1.00
4699;DHT22;33708;49.466;11.176;2023-07-22T05:07:07;21.10;1.00
4699;DHT22;33708;49.466;11.176;2023-07-22T05:09:33;22.30;1.00
4699;DHT22;33708;49.466;11.176;2023-07-22T05:11:58;23.00;1.00
4699;DHT22;33708;49.466;11.176;2023-07-22T05:14:24;21.70;1.00
4699;DHT22;33708;49.466;11.176;2023-07-22T05:16:49;21.00;1.00
4699;DHT22;33708;49.466;11.176;2023-07-22T05:19:15;20.40;1.00
4699;DHT22;33708;49.466;11.176;2023-07-22T05:21:41;20.00;1.00
4699;DHT22;33708;49.466;11.176;2023-07-22T05:24:06;19.70;1.00
4699;DHT22;33708;49.466;11.176;2023-07-22T05:26:32;19.60;1.00
4699;DHT22;33708;49.466;11.176;2023-07-22T05:28:57;19.10;1.00
4699;DHT22;33708;49.466;11.176;2023-07-22T05:31:23;18.50;1.00
4699;DHT22;33708;49.466;11.176;2023-07-22T05:33:49;17.90;1.00
4699;DHT22;33708;49.466;11.176;2023-07-22T05:36:14;17.60;1.00
4699;DHT22;33708;49.466;11.176;2023-07-22T05:38:40;17.80;1.00
4699;DHT22;33708;49.466;11.176;2023-07-22T05:41:05;18.20;1.00
4699;DHT22;33708;49.466;11.176;2023-07-22T05:43:31;17.90;1.00
4699;DHT22;33708;49.466;11.176;2023-07-22T05:45:57;18.10;1.00
4699;DHT22;33708;49.466;11.176;2023-07-22T05:48:22;19.00;1.00
4699;DHT22;33708;49.466;11.176;2023-07-22T05:50:48;18.80;1.00
4699;DHT22;33708;49.466;11.176;2023-07-22T05:53:14;18.80;1.00
4699;DHT22;33708;49.466;11.176;2023-07-22T05:55:39;19.40;1.00
4699;DHT22;33708;49.466;11.176;2023-07-22T05:58:05;20.20;1.00
4699;DHT22;33708;49.466;11.176;2023-07-22T06:00:34;20.20;1.00
4699;DHT22;33708;49.466;11.176;2023-07-22T06:03:00;19.90;1.00
4699;DHT22;33708;49.466;11.176;2023-07-22T06:05:25;19.60;1.00
4699;DHT22;33708;49.466;11.176;2023-07-22T06:07:51;19.60;1.00
4699;DHT22;33708;49.466;11.176;2023-07-22T06:10:17;19.70;1.00
4699;DHT22;33708;49.466;11.176;2023-07-22T06:12:43;19.50;1.00
4699;DHT22;33708;49.466;11.176;2023-07-22T06:15:09;19.50;1.00
4699;DHT22;33708;49.466;11.176;2023-07-22T06:17:34;19.20;1.00
4699;DHT22;33708;49.466;11.176;2023-07-22T06:20:00;19.10;1.00
4699;DHT22;33708;49.466;11.176;2023-07-22T06:22:26;19.00;1.00
4699;DHT22;33708;49.466;11.176;2023-07-22T06:24:52;18.90;1.00
4699;DHT22;33708;49.466;11.176;2023-07-22T06:27:17;18.50;1.00
4699;DHT22;33708;49.466;11.176;2023-07-22T06:29:43;18.40;1.00
4699;DHT22;33708;49.466;11.176;2023-07-22T06:32:08;18.30;1.00
4699;DHT22;33708;49.466;11.176;2023-07-22T06:34:34;18.20;1.00
4699;DHT22;33708;49.466;11.176;2023-07-22T06:37:00;18.20;1.00
4699;DHT22;33708;49.466;11.176;2023-07-22T06:39:25;18.00;1.00
4699;DHT22;33708;49.466;11.176;2023-07-22T06:41:51;18.00;1.00
4699;DHT22;33708;49.466;11.176;2023-07-22T06:44:16;18.10;1.00
4699;DHT22;33708;49.466;11.176;2023-07-22T06:46:42;18.00;1.00
4699;DHT22;33708;49.466;11.176;2023-07-22T06:49:09;17.90;1.00
4699;DHT22;33708;49.466;11.176;2023-07-22T06:51:35;17.90;1.00
4699;DHT22;33708;49.466;11.176;2023-07-22T06:54:03;18.00;1.00
4699;DHT22;33708;49.466;11.176;2023-07-22T06:56:28;17.90;1.00
4699;DHT22;33708;49.466;11.176;2023-07-22T06:58:54;17.80;1.00
4699;DHT22;33708;49.466;11.176;2023-07-22T07:01:19;17.80;1.00
4699;DHT22;33708;49.466;11.176;2023-07-22T07:03:45;17.70;1.00
4699;DHT22;33708;49.466;11.176;2023-07-22T07:06:11;17.60;1.00
4699;DHT22;33708;49.466;11.176;2023-07-22T07:08:37;17.30;1.00
4699;DHT22;33708;49.466;11.176;2023-07-22T07:11:02;17.50;1.00
4699;DHT22;33708;49.466;11.176;2023-07-22T07:13:28;17.60;1.00
4699;DHT22;33708;49.466;11.176;2023-07-22T07:15:54;17.80;1.00
4699;DHT22;33708;49.466;11.176;2023-07-22T07:18:20;17.80;1.00
4699;DHT22;33708;49.466;11.176;2023-07-22T07:20:46;18.20;1.00
4699;DHT22;33708;49.466;11.176;2023-07-22T07:23:13;18.70;1.00
4699;DHT22;33708;49.466;11.176;2023-07-22T07:25:39;18.80;1.00
4699;DHT22;33708;49.466;11.176;2023-07-22T07:28:04;18.80;1.00
4699;DHT22;33708;49.466;11.176;2023-07-22T07:30:31;18.90;1.00
4699;DHT22;33708;49.466;11.176;2023-07-22T07:32:56;19.20;1.00
4699;DHT22;33708;49.466;11.176;2023-07-22T07:35:22;19.20;1.00
4699;DHT22;33708;49.466;11.176;2023-07-22T07:37:47;19.60;1.00
4699;DHT22;33708;49.466;11.176;2023-07-22T07:40:13;19.70;1.00
4699;DHT22;33708;49.466;11.176;2023-07-22T07:42:38;20.70;1.00
4699;DHT22;33708;49.466;11.176;2023-07-22T07:45:04;20.00;1.00
4699;DHT22;33708;49.466;11.176;2023-07-22T07:47:30;19.50;1.00
4699;DHT22;33708;49.466;11.176;2023-07-22T07:49:56;18.90;1.00
4699;DHT22;33708;49.466;11.176;2023-07-22T07:52:21;18.70;1.00
4699;DHT22;33708;49.466;11.176;2023-07-22T07:54:47;18.60;1.00
4699;DHT22;33708;49.466;11.176;2023-07-22T07:57:13;18.60;1.00
4699;DHT22;33708;49.466;11.176;2023-07-22T07:59:38;18.50;1.00
4699;DHT22;33708;49.466;11.176;2023-07-22T08:02:04;18.60;1.00
4699;DHT22;33708;49.466;11.176;2023-07-22T08:04:34;18.60;1.00
4699;DHT22;33708;49.466;11.176;2023-07-22T08:06:59;18.70;1.00
4699;DHT22;33708;49.466;11.176;2023-07-22T08:09:25;19.40;1.00
4699;DHT22;33708;49.466;11.176;2023-07-22T08:11:51;20.10;1.00
4699;DHT22;33708;49.466;11.176;2023-07-22T08:14:16;20.30;1.00
4699;DHT22;33708;49.466;11.176;2023-07-22T08:16:43;19.90;1.00
4699;DHT22;33708;49.466;11.176;2023-07-22T08:19:09;19.50;1.00
4699;DHT22;33708;49.466;11.176;2023-07-22T08:21:35;19.20;1.00
4699;DHT22;33708;49.466;11.176;2023-07-22T08:24:01;19.30;1.00
4699;DHT22;33708;49.466;11.176;2023-07-22T08:26:27;21.00;1.00
4699;DHT22;33708;49.466;11.176;2023-07-22T08:28:54;23.50;1.00
4699;DHT22;33708;49.466;11.176;2023-07-22T08:31:20;23.30;1.00
4699;DHT22;33708;49.466;11.176;2023-07-22T08:33:45;23.70;1.00
4699;DHT22;33708;49.466;11.176;2023-07-22T08:36:11;23.80;1.00
4699;DHT22;33708;49.466;11.176;2023-07-22T08:38:36;24.00;1.00
4699;DHT22;33708;49.466;11.176;2023-07-22T08:41:02;23.90;1.00
4699;DHT22;33708;49.466;11.176;2023-07-22T08:43:29;23.10;1.00
4699;DHT22;33708;49.466;11.176;2023-07-22T08:45:55;23.20;1.00
4699;DHT22;33708;49.466;11.176;2023-07-22T08:48:26;23.50;1.00
4699;DHT22;33708;49.466;11.176;2023-07-22T08:50:55;22.80;1.00
4699;DHT22;33708;49.466;11.176;2023-07-22T08:53:21;23.00;1.00
4699;DHT22;33708;49.466;11.176;2023-07-22T08:55:49;24.20;1.00
4699;DHT22;33708;49.466;11.176;2023-07-22T08:58:15;23.90;1.00
4699;DHT22;33708;49.466;11.176;2023-07-22T09:00:42;23.80;1.00
4699;DHT22;33708;49.466;11.176;2023-07-22T09:03:07;24.40;1.00
4699;DHT22;33708;49.466;11.176;2023-07-22T09:05:35;24.10;1.00
4699;DHT22;33708;49.466;11.176;2023-07-22T09:08:03;27.10;1.00
4699;DHT22;33708;49.466;11.176;2023-07-22T09:10:30;28.00;1.00
4699;DHT22;33708;49.466;11.176;2023-07-22T09:12:56;28.30;1.00
4699;DHT22;33708;49.466;11.176;2023-07-22T09:15:22;28.50;1.00
4699;DHT22;33708;49.466;11.176;2023-07-22T09:17:49;29.10;1.00
4699;DHT22;33708;49.466;11.176;2023-07-22T09:20:15;29.10;1.00
4699;DHT22;33708;49.466;11.176;2023-07-22T09:22:45;29.00;1.00
4699;DHT22;33708;49.466;11.176;2023-07-22T09:25:15;28.70;1.00
4699;DHT22;33708;49.466;11.176;2023-07-22T09:27:41;28.80;1.00
4699;DHT22;33708;49.466;11.176;2023-07-22T09:30:30;28.70;1.00
4699;DHT22;33708;49.466;11.176;2023-07-22T09:32:59;28.00;1.00
4699;DHT22;33708;49.466;11.176;2023-07-22T09:35:48;28.40;1.00
4699;DHT22;33708;49.466;11.176;2023-07-22T09:38:14;27.60;1.00
4699;DHT22;33708;49.466;11.176;2023-07-22T09:40:47;27.40;1.00
4699;DHT22;33708;49.466;11.176;2023-07-22T09:43:12;28.00;1.00
4699;DHT22;33708;49.466;11.176;2023-07-22T09:45:38;28.80;1.00
4699;DHT22;33708;49.466;11.176;2023-07-22T09:48:04;28.80;1.00
4699;DHT22;33708;49.466;11.176;2023-07-22T09:50:31;28.50;1.00
4699;DHT22;33708;49.466;11.176;2023-07-22T09:52:57;27.60;1.00
4699;DHT22;33708;49.466;11.176;2023-07-22T09:55:26;27.10;1.00
4699;DHT22;33708;49.466;11.176;2023-07-22T09:58:04;27.90;1.00
4699;DHT22;33708;49.466;11.176;2023-07-22T10:00:36;28.00;1.00
4699;DHT22;33708;49.466;11.176;2023-07-22T10:03:04;26.30;1.00
4699;DHT22;33708;49.466;11.176;2023-07-22T10:05:38;25.80;1.00
4699;DHT22;33708;49.466;11.176;2023-07-22T10:08:05;26.90;1.00
4699;DHT22;33708;49.466;11.176;2023-07-22T10:10:34;26.70;1.00
4699;DHT22;33708;49.466;11.176;2023-07-22T10:13:01;26.60;1.00
4699;DHT22;33708;49.466;11.176;2023-07-22T10:15:34;25.50;1.00
4699;DHT22;33708;49.466;11.176;2023-07-22T10:18:04;24.90;1.00
4699;DHT22;33708;49.466;11.176;2023-07-22T10:20:34;25.90;1.00
4699;DHT22;33708;49.466;11.176;2023-07-22T10:23:02;26.00;1.00
4699;DHT22;33708;49.466;11.176;2023-07-22T10:25:30;26.50;1.00
4699;DHT22;33708;49.466;11.176;2023-07-22T10:27:55;26.90;1.00
4699;DHT22;33708;49.466;11.176;2023-07-22T10:30:23;26.60;1.00
4699;DHT22;33708;49.466;11.176;2023-07-22T10:32:52;26.80;1.00
4699;DHT22;33708;49.466;11.176;2023-07-22T10:37:56;26.60;1.00
4699;DHT22;33708;49.466;11.176;2023-07-22T10:40:31;25.90;1.00
4699;DHT22;33708;49.466;11.176;2023-07-22T10:43:05;25.60;1.00
4699;DHT22;33708;49.466;11.176;2023-07-22T10:45:32;25.20;1.00
4699;DHT22;33708;49.466;11.176;2023-07-22T10:48:08;24.60;1.00
4699;DHT22;33708;49.466;11.176;2023-07-22T10:50:45;24.60;1.00
4699;DHT22;33708;49.466;11.176;2023-07-22T11:04:25;23.50;1.00
4699;DHT22;33708;49.466;11.176;2023-07-22T11:07:05;23.90;1.00
4699;DHT22;33708;49.466;11.176;2023-07-22T11:14:46;24.70;1.00
4699;DHT22;33708;49.466;11.176;2023-07-22T11:17:12;25.60;1.00
4699;DHT22;33708;49.466;11.176;2023-07-22T11:19:38;24.90;1.00
4699;DHT22;33708;49.466;11.176;2023-07-22T11:22:04;25.40;1.00
4699;DHT22;33708;49.466;11.176;2023-07-22T11:24:35;25.70;1.00
4699;DHT22;33708;49.466;11.176;2023-07-22T11:27:04;25.90;1.00
4699;DHT22;33708;49.466;11.176;2023-07-22T11:29:30;26.60;1.00
4699;DHT22;33708;49.466;11.176;2023-07-22T11:31:56;26.50;1.00
4699;DHT22;33708;49.466;11.176;2023-07-22T11:34:23;26.40;1.00
4699;DHT22;33708;49.466;11.176;2023-07-22T11:36:51;26.10;1.00
4699;DHT22;33708;49.466;11.176;2023-07-22T11:39:19;27.40;1.00
4699;DHT22;33708;49.466;11.176;2023-07-22T11:41:46;27.90;1.00
4699;DHT22;33708;49.466;11.176;2023-07-22T11:44:17;28.40;1.00
4699;DHT22;33708;49.466;11.176;2023-07-22T11:47:00;28.70;1.00
4699;DHT22;33708;49.466;11.176;2023-07-22T11:49:30;28.20;1.00
4699;DHT22;33708;49.466;11.176;2023-07-22T11:52:00;28.00;1.00
4699;DHT22;33708;49.466;11.176;2023-07-22T11:54:27;27.60;1.00
4699;DHT22;33708;49.466;11.176;2023-07-22T11:56:54;27.40;1.00
4699;DHT22;33708;49.466;11.176;2023-07-22T11:59:40;27.10;1.00
4699;DHT22;33708;49.466;11.176;2023-07-22T12:04:42;27.10;1.00
4699;DHT22;33708;49.466;11.176;2023-07-22T12:07:28;26.70;1.00
4699;DHT22;33708;49.466;11.176;2023-07-22T12:09:56;27.40;1.00
4699;DHT22;33708;49.466;11.176;2023-07-22T12:12:35;27.70;1.00
4699;DHT22;33708;49.466;11.176;2023-07-22T12:15:03;27.90;1.00
4699;DHT22;33708;49.466;11.176;2023-07-22T12:17:29;28.50;1.00
4699;DHT22;33708;49.466;11.176;2023-07-22T12:19:55;28.80;1.00
4699;DHT22;33708;49.466;11.176;2023-07-22T12:22:21;28.20;1.00
4699;DHT22;33708;49.466;11.176;2023-07-22T12:24:49;27.60;1.00
4699;DHT22;33708;49.466;11.176;2023-07-22T12:27:15;27.70;1.00
4699;DHT22;33708;49.466;11.176;2023-07-22T12:29:40;27.90;1.00
4699;DHT22;33708;49.466;11.176;2023-07-22T12:32:06;28.00;1.00
4699;DHT22;33708;49.466;11.176;2023-07-22T12:34:32;27.90;1.00
4699;DHT22;33708;49.466;11.176;2023-07-22T12:36:58;26.60;1.00
4699;DHT22;33708;49.466;11.176;2023-07-22T12:39:23;26.60;1.00
4699;DHT22;33708;49.466;11.176;2023-07-22T12:41:49;27.10;1.00
4699;DHT22;33708;49.466;11.176;2023-07-22T12:44:14;26.80;1.00
4699;DHT22;33708;49.466;11.176;2023-07-22T12:46:40;26.60;1.00
4699;DHT22;33708;49.466;11.176;2023-07-22T12:49:05;26.30;1.00
4699;DHT22;33708;49.466;11.176;2023-07-22T12:51:31;26.40;1.00
4699;DHT22;33708;49.466;11.176;2023-07-22T12:53:57;26.30;1.00
4699;DHT22;33708;49.466;11.176;2023-07-22T12:56:22;26.40;1.00
4699;DHT22;33708;49.466;11.176;2023-07-22T12:58:48;26.50;1.00
4699;DHT22;33708;49.466;11.176;2023-07-22T13:01:13;26.60;1.00
4699;DHT22;33708;49.466;11.176;2023-07-22T13:03:39;26.90;1.00
4699;DHT22;33708;49.466;11.176;2023-07-22T13:06:05;26.70;1.00
4699;DHT22;33708;49.466;11.176;2023-07-22T13:08:30;26.60;1.00
4699;DHT22;33708;49.466;11.176;2023-07-22T13:10:56;26.60;1.00
4699;DHT22;33708;49.466;11.176;2023-07-22T13:13:22;26.60;1.00
4699;DHT22;33708;49.466;11.176;2023-07-22T13:15:47;26.90;1.00
4699;DHT22;33708;49.466;11.176;2023-07-22T13:18:13;28.00;1.00
4699;DHT22;33708;49.466;11.176;2023-07-22T13:20:39;29.30;1.00
4699;DHT22;33708;49.466;11.176;2023-07-22T13:23:05;29.00;1.00
4699;DHT22;33708;49.466;11.176;2023-07-22T13:25:30;28.70;1.00
4699;DHT22;33708;49.466;11.176;2023-07-22T13:27:56;28.40;1.00
4699;DHT22;33708;49.466;11.176;2023-07-22T13:30:22;28.80;1.00
4699;DHT22;33708;49.466;11.176;2023-07-22T13:32:47;28.60;1.00
4699;DHT22;33708;49.466;11.176;2023-07-22T13:35:13;28.10;1.00
4699;DHT22;33708;49.466;11.176;2023-07-22T13:37:39;28.00;1.00
4699;DHT22;33708;49.466;11.176;2023-07-22T13:40:05;28.60;1.00
4699;DHT22;33708;49.466;11.176;2023-07-22T13:42:36;28.60;1.00
4699;DHT22;33708;49.466;11.176;2023-07-22T13:45:02;28.60;1.00
4699;DHT22;33708;49.466;11.176;2023-07-22T13:47:27;28.80;1.00
4699;DHT22;33708;49.466;11.176;2023-07-22T13:49:53;28.80;1.00
4699;DHT22;33708;49.466;11.176;2023-07-22T13:52:18;28.00;1.00
4699;DHT22;33708;49.466;11.176;2023-07-22T13:54:44;28.10;1.00
4699;DHT22;33708;49.466;11.176;2023-07-22T13:57:11;27.90;1.00
4699;DHT22;33708;49.466;11.176;2023-07-22T13:59:37;27.60;1.00
4699;DHT22;33708;49.466;11.176;2023-07-22T14:02:03;26.60;1.00
4699;DHT22;33708;49.466;11.176;2023-07-22T14:04:29;26.90;1.00
4699;DHT22;33708;49.466;11.176;2023-07-22T14:06:54;26.80;1.00
4699;DHT22;33708;49.466;11.176;2023-07-22T14:09:20;26.60;1.00
4699;DHT22;33708;49.466;11.176;2023-07-22T14:11:45;26.20;1.00
4699;DHT22;33708;49.466;11.176;2023-07-22T14:14:11;25.60;1.00
4699;DHT22;33708;49.466;11.176;2023-07-22T14:16:36;26.00;1.00
4699;DHT22;33708;49.466;11.176;2023-07-22T14:19:02;27.00;1.00
4699;DHT22;33708;49.466;11.176;2023-07-22T14:21:28;27.40;1.00
4699;DHT22;33708;49.466;11.176;2023-07-22T14:23:53;26.70;1.00
4699;DHT22;33708;49.466;11.176;2023-07-22T14:26:20;26.60;1.00
4699;DHT22;33708;49.466;11.176;2023-07-22T14:28:46;26.60;1.00
4699;DHT22;33708;49.466;11.176;2023-07-22T14:31:11;26.80;1.00
4699;DHT22;33708;49.466;11.176;2023-07-22T14:33:37;26.70;1.00
4699;DHT22;33708;49.466;11.176;2023-07-22T14:36:03;27.00;1.00
4699;DHT22;33708;49.466;11.176;2023-07-22T14:38:28;27.10;1.00
4699;DHT22;33708;49.466;11.176;2023-07-22T14:40:54;27.30;1.00
4699;DHT22;33708;49.466;11.176;2023-07-22T14:43:20;27.90;1.00
4699;DHT22;33708;49.466;11.176;2023-07-22T14:45:45;27.60;1.00
4699;DHT22;33708;49.466;11.176;2023-07-22T14:48:11;27.70;1.00
4699;DHT22;33708;49.466;11.176;2023-07-22T14:50:36;27.70;1.00
4699;DHT22;33708;49.466;11.176;2023-07-22T14:53:02;27.90;1.00
4699;DHT22;33708;49.466;11.176;2023-07-22T14:55:28;27.50;1.00
4699;DHT22;33708;49.466;11.176;2023-07-22T14:57:54;27.60;1.00
4699;DHT22;33708;49.466;11.176;2023-07-22T15:00:20;27.60;1.00
4699;DHT22;33708;49.466;11.176;2023-07-22T15:02:47;27.80;1.00
4699;DHT22;33708;49.466;11.176;2023-07-22T15:05:13;27.30;1.00
4699;DHT22;33708;49.466;11.176;2023-07-22T15:07:38;27.10;1.00
4699;DHT22;33708;49.466;11.176;2023-07-22T15:10:04;26.90;1.00
4699;DHT22;33708;49.466;11.176;2023-07-22T15:12:30;26.40;1.00
4699;DHT22;33708;49.466;11.176;2023-07-22T15:14:55;26.50;1.00
4699;DHT22;33708;49.466;11.176;2023-07-22T15:17:21;26.30;1.00
4699;DHT22;33708;49.466;11.176;2023-07-22T15:19:46;26.30;1.00
4699;DHT22;33708;49.466;11.176;2023-07-22T15:22:12;26.70;1.00
4699;DHT22;33708;49.466;11.176;2023-07-22T15:24:37;26.40;1.00
4699;DHT22;33708;49.466;11.176;2023-07-22T15:27:03;26.70;1.00
4699;DHT22;33708;49.466;11.176;2023-07-22T15:29:29;27.20;1.00
4699;DHT22;33708;49.466;11.176;2023-07-22T15:31:54;27.70;1.00
4699;DHT22;33708;49.466;11.176;2023-07-22T15:34:20;27.20;1.00
4699;DHT22;33708;49.466;11.176;2023-07-22T15:36:45;26.70;1.00
4699;DHT22;33708;49.466;11.176;2023-07-22T15:39:11;26.10;1.00
4699;DHT22;33708;49.466;11.176;2023-07-22T15:41:37;26.00;1.00
4699;DHT22;33708;49.466;11.176;2023-07-22T15:44:02;26.30;1.00
4699;DHT22;33708;49.466;11.176;2023-07-22T15:46:28;26.50;1.00
4699;DHT22;33708;49.466;11.176;2023-07-22T15:48:53;26.40;1.00
4699;DHT22;33708;49.466;11.176;2023-07-22T15:51:20;26.50;1.00
4699;DHT22;33708;49.466;11.176;2023-07-22T15:53:45;26.60;1.00
4699;DHT22;33708;49.466;11.176;2023-07-22T15:56:11;26.70;1.00
4699;DHT22;33708;49.466;11.176;2023-07-22T15:58:37;26.60;1.00
4699;DHT22;33708;49.466;11.176;2023-07-22T16:03:37;26.30;1.00
4699;DHT22;33708;49.466;11.176;2023-07-22T16:06:03;25.80;1.00